sensor_id;sensor_type;location;lat;lon;timestamp;temperature;humidity
59307;DHT22;47983;53.016;-2.260;2023-10-09T00:00:15;14.60;99.90
59307;DHT22;47983;53.016;-2.260;2023-10-09T00:03:02;14.60;99.90
59307;DHT22;47983;53.016;-2.260;2023-10-09T00:05:32;14.70;99.90
59307;DHT22;47983;53.016;-2.260;2023-10-09T00:08:15;14.70;99.90
59307;DHT22;47983;53.016;-2.260;2023-10-09T00:10:48;14.60;99.90
59307;DHT22;47983;53.016;-2.260;2023-10-09T00:13:24;14.60;99.90
59307;DHT22;47983;53.016;-2.260;2023-10-09T00:16:05;14.60;99.90
59307;DHT22;47983;53.016;-2.260;2023-10-09T00:18:42;14.50;99.90
59307;DHT22;47983;53.016;-2.260;2023-10-09T00:21:15;14.50;99.90
59307;DHT22;47983;53.016;-2.260;2023-10-09T00:23:48;14.50;99.90
59307;DHT22;47983;53.016;-2.260;2023-10-09T01:11:21;14.00;99.90
59307;DHT22;47983;53.016;-2.260;2023-10-09T01:13:50;14.00;99.90
59307;DHT22;47983;53.016;-2.260;2023-10-09T01:16:23;14.00;99.90
59307;DHT22;47983;53.016;-2.260;2023-10-09T01:18:55;14.00;99.90
59307;DHT22;47983;53.016;-2.260;2023-10-09T01:21:26;14.00;99.90
59307;DHT22;47983;53.016;-2.260;2023-10-09T01:23:55;13.90;99.90
59307;DHT22;47983;53.016;-2.260;2023-10-09T01:26:38;13.90;99.90
59307;DHT22;47983;53.016;-2.260;2023-10-09T01:29:14;13.90;99.90
59307;DHT22;47983;53.016;-2.260;2023-10-09T01:31:50;13.90;99.90
59307;DHT22;47983;53.016;-2.260;2023-10-09T01:34:31;13.90;99.90
59307;DHT22;47983;53.016;-2.260;2023-10-09T01:37:14;13.90;99.90
59307;DHT22;47983;53.016;-2.260;2023-10-09T01:40:04;13.90;99.90
59307;DHT22;47983;53.016;-2.260;2023-10-09T01:42:54;13.80;99.90
59307;DHT22;47983;53.016;-2.260;2023-10-09T01:45:24;13.80;99.90
59307;DHT22;47983;53.016;-2.260;2023-10-09T01:47:52;13.80;99.90
59307;DHT22;47983;53.016;-2.260;2023-10-09T01:50:21;13.70;99.90
59307;DHT22;47983;53.016;-2.260;2023-10-09T01:52:52;13.70;99.90
59307;DHT22;47983;53.016;-2.260;2023-10-09T01:55:20;13.70;99.90
59307;DHT22;47983;53.016;-2.260;2023-10-09T01:58:13;13.70;99.90
59307;DHT22;47983;53.016;-2.260;2023-10-09T02:00:50;13.60;99.90
59307;DHT22;47983;53.016;-2.260;2023-10-09T02:03:24;13.70;99.90
59307;DHT22;47983;53.016;-2.260;2023-10-09T02:05:53;13.60;99.90
59307;DHT22;47983;53.016;-2.260;2023-10-09T02:08:21;13.60;99.90
59307;DHT22;47983;53.016;-2.260;2023-10-09T02:10:54;13.60;99.90
59307;DHT22;47983;53.016;-2.260;2023-10-09T02:13:23;13.60;99.90
59307;DHT22;47983;53.016;-2.260;2023-10-09T02:15:59;13.60;99.90
59307;DHT22;47983;53.016;-2.260;2023-10-09T02:18:41;13.60;99.90
59307;DHT22;47983;53.016;-2.260;2023-10-09T02:21:23;13.50;99.90
59307;DHT22;47983;53.016;-2.260;2023-10-09T02:24:02;13.50;99.90
59307;DHT22;47983;53.016;-2.260;2023-10-09T02:26:40;13.50;99.90
59307;DHT22;47983;53.016;-2.260;2023-10-09T02:29:08;13.50;99.90
59307;DHT22;47983;53.016;-2.260;2023-10-09T02:31:42;13.50;99.90
59307;DHT22;47983;53.016;-2.260;2023-10-09T02:34:14;13.50;99.90
59307;DHT22;47983;53.016;-2.260;2023-10-09T02:36:44;13.50;99.90
59307;DHT22;47983;53.016;-2.260;2023-10-09T02:39:25;13.50;99.90
59307;DHT22;47983;53.016;-2.260;2023-10-09T02:41:57;13.50;99.90
59307;DHT22;47983;53.016;-2.260;2023-10-09T02:44:35;13.50;99.90
59307;DHT22;47983;53.016;-2.260;2023-10-09T02:47:08;13.50;99.90
59307;DHT22;47983;53.016;-2.260;2023-10-09T02:49:46;13.50;99.90
59307;DHT22;47983;53.016;-2.260;2023-10-09T02:52:16;13.50;99.90
59307;DHT22;47983;53.016;-2.260;2023-10-09T02:54:46;13.50;99.90
59307;DHT22;47983;53.016;-2.260;2023-10-09T02:57:14;13.40;99.90
59307;DHT22;47983;53.016;-2.260;2023-10-09T02:59:51;13.40;99.90
59307;DHT22;47983;53.016;-2.260;2023-10-09T03:02:20;13.40;99.90
59307;DHT22;47983;53.016;-2.260;2023-10-09T03:04:48;13.40;99.90
59307;DHT22;47983;53.016;-2.260;2023-10-09T03:07:15;13.40;99.90
59307;DHT22;47983;53.016;-2.260;2023-10-09T03:09:43;13.40;99.90
59307;DHT22;47983;53.016;-2.260;2023-10-09T03:12:11;13.40;99.90
59307;DHT22;47983;53.016;-2.260;2023-10-09T03:14:40;13.40;99.90
59307;DHT22;47983;53.016;-2.260;2023-10-09T03:17:09;13.40;99.90
59307;DHT22;47983;53.016;-2.260;2023-10-09T03:19:40;13.40;99.90
59307;DHT22;47983;53.016;-2.260;2023-10-09T03:22:08;13.50;99.90
59307;DHT22;47983;53.016;-2.260;2023-10-09T03:24:39;13.40;99.90
59307;DHT22;47983;53.016;-2.260;2023-10-09T03:27:17;13.40;99.90
59307;DHT22;47983;53.016;-2.260;2023-10-09T03:29:46;13.40;99.90
59307;DHT22;47983;53.016;-2.260;2023-10-09T03:32:17;13.40;99.90
59307;DHT22;47983;53.016;-2.260;2023-10-09T03:34:47;13.40;99.90
59307;DHT22;47983;53.016;-2.260;2023-10-09T03:37:19;13.40;99.90
59307;DHT22;47983;53.016;-2.260;2023-10-09T03:39:51;13.30;99.90
59307;DHT22;47983;53.016;-2.260;2023-10-09T03:42:22;13.30;99.90
59307;DHT22;47983;53.016;-2.260;2023-10-09T03:44:52;13.30;99.90
59307;DHT22;47983;53.016;-2.260;2023-10-09T03:47:21;13.30;99.90
59307;DHT22;47983;53.016;-2.260;2023-10-09T03:49:50;13.30;99.90
59307;DHT22;47983;53.016;-2.260;2023-10-09T03:52:22;13.30;99.90
59307;DHT22;47983;53.016;-2.260;2023-10-09T03:54:53;13.30;99.90
59307;DHT22;47983;53.016;-2.260;2023-10-09T03:57:23;13.30;99.90
59307;DHT22;47983;53.016;-2.260;2023-10-09T03:59:52;13.30;99.90
59307;DHT22;47983;53.016;-2.260;2023-10-09T04:02:20;13.30;99.90
59307;DHT22;47983;53.016;-2.260;2023-10-09T04:04:51;13.30;99.90
59307;DHT22;47983;53.016;-2.260;2023-10-09T04:07:19;13.30;99.90
59307;DHT22;47983;53.016;-2.260;2023-10-09T04:09:49;13.30;99.90
59307;DHT22;47983;53.016;-2.260;2023-10-09T04:12:29;13.30;99.90
59307;DHT22;47983;53.016;-2.260;2023-10-09T04:14:58;13.30;99.90
59307;DHT22;47983;53.016;-2.260;2023-10-09T04:17:32;13.30;99.90
59307;DHT22;47983;53.016;-2.260;2023-10-09T04:20:04;13.30;99.90
59307;DHT22;47983;53.016;-2.260;2023-10-09T04:22:47;13.40;99.90
59307;DHT22;47983;53.016;-2.260;2023-10-09T04:25:18;13.40;99.90
59307;DHT22;47983;53.016;-2.260;2023-10-09T04:27:57;13.40;99.90
59307;DHT22;47983;53.016;-2.260;2023-10-09T04:30:51;13.40;99.90
59307;DHT22;47983;53.016;-2.260;2023-10-09T04:33:23;13.40;99.90
59307;DHT22;47983;53.016;-2.260;2023-10-09T04:36:09;13.40;99.90
59307;DHT22;47983;53.016;-2.260;2023-10-09T04:38:52;13.40;99.90
59307;DHT22;47983;53.016;-2.260;2023-10-09T04:41:32;13.40;99.90
59307;DHT22;47983;53.016;-2.260;2023-10-09T04:44:19;13.40;99.90
59307;DHT22;47983;53.016;-2.260;2023-10-09T04:46:49;13.40;99.90
59307;DHT22;47983;53.016;-2.260;2023-10-09T04:49:41;13.40;99.90
59307;DHT22;47983;53.016;-2.260;2023-10-09T04:52:16;13.40;99.90
59307;DHT22;47983;53.016;-2.260;2023-10-09T04:54:57;13.40;99.90
59307;DHT22;47983;53.016;-2.260;2023-10-09T04:57:42;13.40;99.90
59307;DHT22;47983;53.016;-2.260;2023-10-09T05:00:13;13.40;99.90
59307;DHT22;47983;53.016;-2.260;2023-10-09T05:03:03;13.40;99.90
59307;DHT22;47983;53.016;-2.260;2023-10-09T05:05:52;13.40;99.90
59307;DHT22;47983;53.016;-2.260;2023-10-09T05:08:27;13.40;99.90
59307;DHT22;47983;53.016;-2.260;2023-10-09T05:11:01;13.40;99.90
59307;DHT22;47983;53.016;-2.260;2023-10-09T05:16:18;13.40;99.90
59307;DHT22;47983;53.016;-2.260;2023-10-09T05:18:50;13.40;99.90
59307;DHT22;47983;53.016;-2.260;2023-10-09T05:21:28;13.40;99.90
59307;DHT22;47983;53.016;-2.260;2023-10-09T05:24:02;13.40;99.90
59307;DHT22;47983;53.016;-2.260;2023-10-09T05:26:49;13.40;99.90
59307;DHT22;47983;53.016;-2.260;2023-10-09T05:29:18;13.40;99.90
59307;DHT22;47983;53.016;-2.260;2023-10-09T05:32:03;13.40;99.90
59307;DHT22;47983;53.016;-2.260;2023-10-09T05:34:45;13.40;99.90
59307;DHT22;47983;53.016;-2.260;2023-10-09T05:37:42;13.40;99.90
59307;DHT22;47983;53.016;-2.260;2023-10-09T05:40:11;13.40;99.90
59307;DHT22;47983;53.016;-2.260;2023-10-09T05:42:46;13.40;99.90
59307;DHT22;47983;53.016;-2.260;2023-10-09T05:45:27;13.40;99.90
59307;DHT22;47983;53.016;-2.260;2023-10-09T05:48:18;13.40;99.90
59307;DHT22;47983;53.016;-2.260;2023-10-09T05:50:46;13.40;99.90
59307;DHT22;47983;53.016;-2.260;2023-10-09T05:53:32;13.40;99.90
59307;DHT22;47983;53.016;-2.260;2023-10-09T05:56:13;13.50;99.90
59307;DHT22;47983;53.016;-2.260;2023-10-09T05:59:11;13.50;99.90
59307;DHT22;47983;53.016;-2.260;2023-10-09T06:01:57;13.50;99.90
59307;DHT22;47983;53.016;-2.260;2023-10-09T06:04:43;13.50;99.90
59307;DHT22;47983;53.016;-2.260;2023-10-09T06:07:22;13.50;99.90
59307;DHT22;47983;53.016;-2.260;2023-10-09T06:09:52;13.50;99.90
59307;DHT22;47983;53.016;-2.260;2023-10-09T06:12:24;13.40;99.90
59307;DHT22;47983;53.016;-2.260;2023-10-09T06:15:02;13.50;99.90
59307;DHT22;47983;53.016;-2.260;2023-10-09T06:17:47;13.40;99.90
59307;DHT22;47983;53.016;-2.260;2023-10-09T06:20:18;13.40;99.90
59307;DHT22;47983;53.016;-2.260;2023-10-09T06:23:05;13.40;99.90
59307;DHT22;47983;53.016;-2.260;2023-10-09T06:25:44;13.40;99.90
59307;DHT22;47983;53.016;-2.260;2023-10-09T06:28:19;13.40;99.90
59307;DHT22;47983;53.016;-2.260;2023-10-09T06:31:00;13.40;99.90
59307;DHT22;47983;53.016;-2.260;2023-10-09T06:33:51;13.50;99.90
59307;DHT22;47983;53.016;-2.260;2023-10-09T06:36:44;13.50;99.90
59307;DHT22;47983;53.016;-2.260;2023-10-09T06:39:24;13.50;99.90
59307;DHT22;47983;53.016;-2.260;2023-10-09T06:42:10;13.50;99.90
59307;DHT22;47983;53.016;-2.260;2023-10-09T06:45:01;13.60;99.90
59307;DHT22;47983;53.016;-2.260;2023-10-09T06:47:33;13.60;99.90
59307;DHT22;47983;53.016;-2.260;2023-10-09T06:50:13;13.70;99.90
59307;DHT22;47983;53.016;-2.260;2023-10-09T06:52:50;13.70;99.90
59307;DHT22;47983;53.016;-2.260;2023-10-09T06:55:38;13.80;99.90
59307;DHT22;47983;53.016;-2.260;2023-10-09T06:58:25;13.80;99.90
59307;DHT22;47983;53.016;-2.260;2023-10-09T07:01:10;13.90;99.90
59307;DHT22;47983;53.016;-2.260;2023-10-09T07:04:08;13.90;99.90
59307;DHT22;47983;53.016;-2.260;2023-10-09T07:07:15;13.90;99.90
59307;DHT22;47983;53.016;-2.260;2023-10-09T07:09:48;13.90;99.90
59307;DHT22;47983;53.016;-2.260;2023-10-09T07:12:36;14.00;99.90
59307;DHT22;47983;53.016;-2.260;2023-10-09T07:15:10;14.00;99.90
59307;DHT22;47983;53.016;-2.260;2023-10-09T07:17:39;14.00;99.90
59307;DHT22;47983;53.016;-2.260;2023-10-09T07:20:07;14.00;99.90
59307;DHT22;47983;53.016;-2.260;2023-10-09T07:22:42;14.00;99.90
59307;DHT22;47983;53.016;-2.260;2023-10-09T07:25:30;14.00;99.90
59307;DHT22;47983;53.016;-2.260;2023-10-09T07:28:12;14.10;99.90
59307;DHT22;47983;53.016;-2.260;2023-10-09T07:30:46;14.10;99.90
59307;DHT22;47983;53.016;-2.260;2023-10-09T07:33:14;14.10;99.90
59307;DHT22;47983;53.016;-2.260;2023-10-09T07:35:46;14.10;99.90
59307;DHT22;47983;53.016;-2.260;2023-10-09T07:38:19;14.20;99.90
59307;DHT22;47983;53.016;-2.260;2023-10-09T07:40:48;14.20;99.90
59307;DHT22;47983;53.016;-2.260;2023-10-09T07:43:39;14.30;99.90
59307;DHT22;47983;53.016;-2.260;2023-10-09T07:46:09;14.30;99.90
59307;DHT22;47983;53.016;-2.260;2023-10-09T07:48:56;14.30;99.90
59307;DHT22;47983;53.016;-2.260;2023-10-09T07:51:25;14.30;99.90
59307;DHT22;47983;53.016;-2.260;2023-10-09T07:53:59;14.40;99.90
59307;DHT22;47983;53.016;-2.260;2023-10-09T07:56:38;14.40;99.90
59307;DHT22;47983;53.016;-2.260;2023-10-09T07:59:08;14.50;99.90
59307;DHT22;47983;53.016;-2.260;2023-10-09T08:01:43;14.50;99.90
59307;DHT22;47983;53.016;-2.260;2023-10-09T08:04:23;14.50;99.90
59307;DHT22;47983;53.016;-2.260;2023-10-09T08:07:16;14.60;99.90
59307;DHT22;47983;53.016;-2.260;2023-10-09T08:10:08;14.70;99.90
59307;DHT22;47983;53.016;-2.260;2023-10-09T08:12:45;14.80;99.90
59307;DHT22;47983;53.016;-2.260;2023-10-09T08:15:13;14.90;99.90
59307;DHT22;47983;53.016;-2.260;2023-10-09T08:17:55;14.90;99.90
59307;DHT22;47983;53.016;-2.260;2023-10-09T08:20:31;15.00;99.90
59307;DHT22;47983;53.016;-2.260;2023-10-09T08:23:18;15.10;99.90
59307;DHT22;47983;53.016;-2.260;2023-10-09T08:26:02;15.20;99.90
59307;DHT22;47983;53.016;-2.260;2023-10-09T08:28:44;15.30;99.90
59307;DHT22;47983;53.016;-2.260;2023-10-09T08:31:17;15.30;99.90
59307;DHT22;47983;53.016;-2.260;2023-10-09T08:34:14;15.40;99.90
59307;DHT22;47983;53.016;-2.260;2023-10-09T08:36:55;15.40;99.90
59307;DHT22;47983;53.016;-2.260;2023-10-09T08:39:23;15.50;99.90
59307;DHT22;47983;53.016;-2.260;2023-10-09T08:41:55;15.50;99.90
59307;DHT22;47983;53.016;-2.260;2023-10-09T08:44:26;15.60;99.90
59307;DHT22;47983;53.016;-2.260;2023-10-09T08:47:00;15.70;99.90
59307;DHT22;47983;53.016;-2.260;2023-10-09T08:49:30;15.70;99.90
59307;DHT22;47983;53.016;-2.260;2023-10-09T08:52:01;15.80;99.90
59307;DHT22;47983;53.016;-2.260;2023-10-09T08:54:32;15.80;99.90
59307;DHT22;47983;53.016;-2.260;2023-10-09T08:57:01;15.90;99.90
59307;DHT22;47983;53.016;-2.260;2023-10-09T08:59:28;16.00;99.90
59307;DHT22;47983;53.016;-2.260;2023-10-09T09:01:57;16.00;99.90
59307;DHT22;47983;53.016;-2.260;2023-10-09T09:04:38;16.10;99.90
59307;DHT22;47983;53.016;-2.260;2023-10-09T09:07:24;16.20;99.90
59307;DHT22;47983;53.016;-2.260;2023-10-09T09:10:00;16.30;99.90
59307;DHT22;47983;53.016;-2.260;2023-10-09T09:12:49;16.30;99.90
59307;DHT22;47983;53.016;-2.260;2023-10-09T09:15:28;16.40;99.90
59307;DHT22;47983;53.016;-2.260;2023-10-09T09:18:06;16.50;99.90
59307;DHT22;47983;53.016;-2.260;2023-10-09T09:20:38;16.50;99.90
59307;DHT22;47983;53.016;-2.260;2023-10-09T09:23:13;16.60;99.90
59307;DHT22;47983;53.016;-2.260;2023-10-09T09:25:46;16.70;99.90
59307;DHT22;47983;53.016;-2.260;2023-10-09T09:28:26;16.80;99.90
59307;DHT22;47983;53.016;-2.260;2023-10-09T09:31:08;16.80;99.90
59307;DHT22;47983;53.016;-2.260;2023-10-09T09:33:42;16.90;99.90
59307;DHT22;47983;53.016;-2.260;2023-10-09T09:36:11;17.10;99.90
59307;DHT22;47983;53.016;-2.260;2023-10-09T09:38:39;17.30;99.90
59307;DHT22;47983;53.016;-2.260;2023-10-09T09:41:16;17.50;99.90
59307;DHT22;47983;53.016;-2.260;2023-10-09T09:43:55;17.60;99.90
59307;DHT22;47983;53.016;-2.260;2023-10-09T09:46:33;17.70;99.90
59307;DHT22;47983;53.016;-2.260;2023-10-09T09:49:06;17.90;99.90
59307;DHT22;47983;53.016;-2.260;2023-10-09T09:51:44;18.00;99.90
59307;DHT22;47983;53.016;-2.260;2023-10-09T09:54:14;18.30;99.90
59307;DHT22;47983;53.016;-2.260;2023-10-09T09:56:46;18.50;99.90
59307;DHT22;47983;53.016;-2.260;2023-10-09T09:59:26;18.80;99.90
59307;DHT22;47983;53.016;-2.260;2023-10-09T10:01:58;19.00;99.90
59307;DHT22;47983;53.016;-2.260;2023-10-09T10:04:38;19.10;99.90
59307;DHT22;47983;53.016;-2.260;2023-10-09T10:07:06;19.30;99.90
59307;DHT22;47983;53.016;-2.260;2023-10-09T10:09:41;19.40;99.90
59307;DHT22;47983;53.016;-2.260;2023-10-09T10:12:12;19.50;99.90
59307;DHT22;47983;53.016;-2.260;2023-10-09T10:14:58;19.60;99.90
59307;DHT22;47983;53.016;-2.260;2023-10-09T10:20:27;19.80;99.90
59307;DHT22;47983;53.016;-2.260;2023-10-09T10:23:30;19.80;99.90
59307;DHT22;47983;53.016;-2.260;2023-10-09T10:26:22;19.90;99.90
59307;DHT22;47983;53.016;-2.260;2023-10-09T10:32:02;20.10;99.90
59307;DHT22;47983;53.016;-2.260;2023-10-09T10:37:37;20.10;99.90
59307;DHT22;47983;53.016;-2.260;2023-10-09T10:40:11;20.10;99.90
59307;DHT22;47983;53.016;-2.260;2023-10-09T10:43:02;20.00;99.90
59307;DHT22;47983;53.016;-2.260;2023-10-09T10:46:06;19.90;99.90
59307;DHT22;47983;53.016;-2.260;2023-10-09T10:48:43;19.80;99.90
59307;DHT22;47983;53.016;-2.260;2023-10-09T10:51:17;19.70;99.90
59307;DHT22;47983;53.016;-2.260;2023-10-09T10:53:53;19.70;99.90
59307;DHT22;47983;53.016;-2.260;2023-10-09T10:56:25;19.80;99.90
59307;DHT22;47983;53.016;-2.260;2023-10-09T10:59:04;19.80;99.90
59307;DHT22;47983;53.016;-2.260;2023-10-09T11:01:33;20.00;99.90
59307;DHT22;47983;53.016;-2.260;2023-10-09T11:04:22;20.00;99.90
59307;DHT22;47983;53.016;-2.260;2023-10-09T11:06:56;20.00;99.90
59307;DHT22;47983;53.016;-2.260;2023-10-09T11:09:55;20.00;99.90
59307;DHT22;47983;53.016;-2.260;2023-10-09T11:12:44;20.00;99.90
59307;DHT22;47983;53.016;-2.260;2023-10-09T11:15:15;20.00;99.90
59307;DHT22;47983;53.016;-2.260;2023-10-09T11:18:02;19.90;99.90
59307;DHT22;47983;53.016;-2.260;2023-10-09T11:20:35;19.90;99.90
59307;DHT22;47983;53.016;-2.260;2023-10-09T11:23:04;19.90;99.90
59307;DHT22;47983;53.016;-2.260;2023-10-09T11:25:42;20.00;99.90
59307;DHT22;47983;53.016;-2.260;2023-10-09T11:28:21;20.10;99.90
59307;DHT22;47983;53.016;-2.260;2023-10-09T11:31:16;20.20;99.90
59307;DHT22;47983;53.016;-2.260;2023-10-09T11:33:51;20.30;99.90
59307;DHT22;47983;53.016;-2.260;2023-10-09T11:36:21;20.40;99.90
59307;DHT22;47983;53.016;-2.260;2023-10-09T11:38:59;20.30;99.90
59307;DHT22;47983;53.016;-2.260;2023-10-09T11:41:41;20.40;99.90
59307;DHT22;47983;53.016;-2.260;2023-10-09T11:44:09;20.40;99.90
59307;DHT22;47983;53.016;-2.260;2023-10-09T11:47:00;20.40;99.90
59307;DHT22;47983;53.016;-2.260;2023-10-09T11:49:51;20.40;99.90
59307;DHT22;47983;53.016;-2.260;2023-10-09T11:52:33;20.40;99.90
59307;DHT22;47983;53.016;-2.260;2023-10-09T11:55:06;20.50;99.90
59307;DHT22;47983;53.016;-2.260;2023-10-09T11:57:43;20.50;99.90
59307;DHT22;47983;53.016;-2.260;2023-10-09T12:00:12;20.50;99.90
59307;DHT22;47983;53.016;-2.260;2023-10-09T12:02:58;20.50;99.90
59307;DHT22;47983;53.016;-2.260;2023-10-09T12:05:33;20.40;99.90
59307;DHT22;47983;53.016;-2.260;2023-10-09T12:08:02;20.40;99.90
59307;DHT22;47983;53.016;-2.260;2023-10-09T12:10:31;20.50;99.90
59307;DHT22;47983;53.016;-2.260;2023-10-09T12:13:01;20.50;99.90
59307;DHT22;47983;53.016;-2.260;2023-10-09T12:15:32;20.50;99.90
59307;DHT22;47983;53.016;-2.260;2023-10-09T12:18:06;20.60;99.90
59307;DHT22;47983;53.016;-2.260;2023-10-09T12:20:43;20.70;99.90
59307;DHT22;47983;53.016;-2.260;2023-10-09T12:23:20;20.90;99.90
59307;DHT22;47983;53.016;-2.260;2023-10-09T12:25:49;21.00;99.90
59307;DHT22;47983;53.016;-2.260;2023-10-09T12:28:17;21.20;99.90
59307;DHT22;47983;53.016;-2.260;2023-10-09T12:30:48;21.50;99.90
59307;DHT22;47983;53.016;-2.260;2023-10-09T12:33:20;22.10;99.90
59307;DHT22;47983;53.016;-2.260;2023-10-09T12:35:56;22.70;99.90
59307;DHT22;47983;53.016;-2.260;2023-10-09T12:38:29;23.20;99.90
59307;DHT22;47983;53.016;-2.260;2023-10-09T12:41:07;23.60;99.90
59307;DHT22;47983;53.016;-2.260;2023-10-09T12:43:54;23.90;99.90
59307;DHT22;47983;53.016;-2.260;2023-10-09T12:46:22;24.40;99.90
59307;DHT22;47983;53.016;-2.260;2023-10-09T12:48:51;25.00;99.90
59307;DHT22;47983;53.016;-2.260;2023-10-09T12:51:22;25.50;99.90
59307;DHT22;47983;53.016;-2.260;2023-10-09T12:53:58;26.00;99.90
59307;DHT22;47983;53.016;-2.260;2023-10-09T12:56:27;26.20;99.90
59307;DHT22;47983;53.016;-2.260;2023-10-09T12:59:00;26.30;99.90
59307;DHT22;47983;53.016;-2.260;2023-10-09T13:01:29;26.30;99.90
59307;DHT22;47983;53.016;-2.260;2023-10-09T13:04:00;26.20;99.90
59307;DHT22;47983;53.016;-2.260;2023-10-09T13:06:27;26.10;99.90
59307;DHT22;47983;53.016;-2.260;2023-10-09T13:08:55;26.10;99.90
59307;DHT22;47983;53.016;-2.260;2023-10-09T13:11:27;26.10;99.90
59307;DHT22;47983;53.016;-2.260;2023-10-09T13:13:55;26.00;99.90
59307;DHT22;47983;53.016;-2.260;2023-10-09T13:16:26;26.00;99.90
59307;DHT22;47983;53.016;-2.260;2023-10-09T13:18:56;25.90;99.90
59307;DHT22;47983;53.016;-2.260;2023-10-09T13:21:27;25.90;99.90
59307;DHT22;47983;53.016;-2.260;2023-10-09T13:24:01;25.80;99.90
59307;DHT22;47983;53.016;-2.260;2023-10-09T13:26:30;25.70;99.90
59307;DHT22;47983;53.016;-2.260;2023-10-09T13:29:02;25.70;99.90
59307;DHT22;47983;53.016;-2.260;2023-10-09T13:31:31;25.80;99.90
59307;DHT22;47983;53.016;-2.260;2023-10-09T13:34:03;26.10;99.90
59307;DHT22;47983;53.016;-2.260;2023-10-09T13:36:35;26.40;99.90
59307;DHT22;47983;53.016;-2.260;2023-10-09T13:39:06;26.70;99.90
59307;DHT22;47983;53.016;-2.260;2023-10-09T13:41:59;27.00;99.90
59307;DHT22;47983;53.016;-2.260;2023-10-09T13:44:30;27.30;99.90
59307;DHT22;47983;53.016;-2.260;2023-10-09T13:47:03;27.60;99.90
59307;DHT22;47983;53.016;-2.260;2023-10-09T13:49:33;27.80;99.90
59307;DHT22;47983;53.016;-2.260;2023-10-09T13:52:02;27.80;99.90
59307;DHT22;47983;53.016;-2.260;2023-10-09T13:54:31;27.70;99.90
59307;DHT22;47983;53.016;-2.260;2023-10-09T13:57:03;27.40;99.90
59307;DHT22;47983;53.016;-2.260;2023-10-09T13:59:34;26.90;99.90
59307;DHT22;47983;53.016;-2.260;2023-10-09T14:02:10;26.40;99.90
59307;DHT22;47983;53.016;-2.260;2023-10-09T14:04:47;25.90;99.90
59307;DHT22;47983;53.016;-2.260;2023-10-09T14:07:16;25.40;99.90
59307;DHT22;47983;53.016;-2.260;2023-10-09T14:09:48;25.00;99.90
59307;DHT22;47983;53.016;-2.260;2023-10-09T14:12:35;24.70;99.90
59307;DHT22;47983;53.016;-2.260;2023-10-09T14:15:08;24.30;99.90
59307;DHT22;47983;53.016;-2.260;2023-10-09T14:17:44;24.00;99.90
59307;DHT22;47983;53.016;-2.260;2023-10-09T14:20:14;23.80;99.90
59307;DHT22;47983;53.016;-2.260;2023-10-09T14:23:02;23.60;99.90
59307;DHT22;47983;53.016;-2.260;2023-10-09T14:25:47;23.40;99.90
59307;DHT22;47983;53.016;-2.260;2023-10-09T14:28:17;23.20;99.90
59307;DHT22;47983;53.016;-2.260;2023-10-09T14:30:46;23.00;99.90
59307;DHT22;47983;53.016;-2.260;2023-10-09T14:33:22;22.80;99.90
59307;DHT22;47983;53.016;-2.260;2023-10-09T14:35:55;22.80;99.90
59307;DHT22;47983;53.016;-2.260;2023-10-09T14:38:23;22.70;99.90
59307;DHT22;47983;53.016;-2.260;2023-10-09T14:40:54;22.60;99.90
59307;DHT22;47983;53.016;-2.260;2023-10-09T14:43:27;22.50;99.90
59307;DHT22;47983;53.016;-2.260;2023-10-09T14:45:55;22.50;99.90
59307;DHT22;47983;53.016;-2.260;2023-10-09T14:48:25;22.40;99.90
59307;DHT22;47983;53.016;-2.260;2023-10-09T14:50:56;22.30;99.90
59307;DHT22;47983;53.016;-2.260;2023-10-09T14:53:35;22.30;99.90
59307;DHT22;47983;53.016;-2.260;2023-10-09T14:56:03;22.20;99.90
59307;DHT22;47983;53.016;-2.260;2023-10-09T14:58:36;22.10;99.90
59307;DHT22;47983;53.016;-2.260;2023-10-09T15:01:08;22.00;99.90
59307;DHT22;47983;53.016;-2.260;2023-10-09T15:03:40;22.00;99.90
59307;DHT22;47983;53.016;-2.260;2023-10-09T15:06:10;21.90;99.90
59307;DHT22;47983;53.016;-2.260;2023-10-09T15:08:38;21.90;99.90
59307;DHT22;47983;53.016;-2.260;2023-10-09T15:11:08;21.90;99.90
59307;DHT22;47983;53.016;-2.260;2023-10-09T15:13:36;21.90;99.90
59307;DHT22;47983;53.016;-2.260;2023-10-09T15:16:10;21.90;99.90
59307;DHT22;47983;53.016;-2.260;2023-10-09T15:18:39;21.80;99.90
59307;DHT22;47983;53.016;-2.260;2023-10-09T15:21:07;21.80;99.90
59307;DHT22;47983;53.016;-2.260;2023-10-09T15:23:36;21.80;99.90
59307;DHT22;47983;53.016;-2.260;2023-10-09T15:26:04;21.70;99.90
59307;DHT22;47983;53.016;-2.260;2023-10-09T15:28:34;21.70;99.90
59307;DHT22;47983;53.016;-2.260;2023-10-09T15:31:06;21.60;99.90
59307;DHT22;47983;53.016;-2.260;2023-10-09T15:33:38;21.60;99.90
59307;DHT22;47983;53.016;-2.260;2023-10-09T15:36:12;21.60;99.90
59307;DHT22;47983;53.016;-2.260;2023-10-09T15:38:41;21.50;99.90
59307;DHT22;47983;53.016;-2.260;2023-10-09T15:41:08;21.50;99.90
59307;DHT22;47983;53.016;-2.260;2023-10-09T15:43:36;21.50;99.90
59307;DHT22;47983;53.016;-2.260;2023-10-09T15:46:11;21.40;99.90
59307;DHT22;47983;53.016;-2.260;2023-10-09T15:48:41;21.30;99.90
59307;DHT22;47983;53.016;-2.260;2023-10-09T15:51:10;21.20;99.90
59307;DHT22;47983;53.016;-2.260;2023-10-09T15:53:42;21.10;99.90
59307;DHT22;47983;53.016;-2.260;2023-10-09T15:56:11;21.10;99.90
59307;DHT22;47983;53.016;-2.260;2023-10-09T15:58:43;21.00;99.90
59307;DHT22;47983;53.016;-2.260;2023-10-09T16:01:13;21.00;99.90
59307;DHT22;47983;53.016;-2.260;2023-10-09T16:03:45;20.80;99.90
59307;DHT22;47983;53.016;-2.260;2023-10-09T16:06:16;20.80;99.90
59307;DHT22;47983;53.016;-2.260;2023-10-09T16:08:46;20.70;99.90
59307;DHT22;47983;53.016;-2.260;2023-10-09T16:11:21;20.60;99.90
59307;DHT22;47983;53.016;-2.260;2023-10-09T16:13:53;20.60;99.90
59307;DHT22;47983;53.016;-2.260;2023-10-09T16:16:29;20.50;99.90
59307;DHT22;47983;53.016;-2.260;2023-10-09T16:18:57;20.50;99.90
59307;DHT22;47983;53.016;-2.260;2023-10-09T16:21:25;20.40;99.90
59307;DHT22;47983;53.016;-2.260;2023-10-09T16:23:53;20.40;99.90
59307;DHT22;47983;53.016;-2.260;2023-10-09T16:26:21;20.30;99.90
59307;DHT22;47983;53.016;-2.260;2023-10-09T16:28:52;20.20;99.90
59307;DHT22;47983;53.016;-2.260;2023-10-09T16:31:20;20.20;99.90
59307;DHT22;47983;53.016;-2.260;2023-10-09T16:33:48;20.10;99.90
59307;DHT22;47983;53.016;-2.260;2023-10-09T16:36:16;20.00;99.90
59307;DHT22;47983;53.016;-2.260;2023-10-09T16:38:44;19.90;99.90
59307;DHT22;47983;53.016;-2.260;2023-10-09T16:41:14;19.90;99.90
59307;DHT22;47983;53.016;-2.260;2023-10-09T16:43:42;19.70;99.90
59307;DHT22;47983;53.016;-2.260;2023-10-09T16:46:11;19.70;99.90
59307;DHT22;47983;53.016;-2.260;2023-10-09T16:48:42;19.60;99.90
59307;DHT22;47983;53.016;-2.260;2023-10-09T16:51:13;19.40;99.90
59307;DHT22;47983;53.016;-2.260;2023-10-09T16:53:41;19.40;99.90
59307;DHT22;47983;53.016;-2.260;2023-10-09T16:56:09;19.30;99.90
59307;DHT22;47983;53.016;-2.260;2023-10-09T16:58:41;19.10;99.90
59307;DHT22;47983;53.016;-2.260;2023-10-09T17:01:09;19.10;99.90